createdAt,value
2018-07-10T00:02:33.613Z,48.70
2018-07-10T00:06:15.192Z,48.90
2018-07-10T00:09:59.502Z,49.30
2018-07-10T00:12:27.819Z,49.20
2018-07-10T00:14:56.203Z,48.90
2018-07-10T00:17:24.466Z,48.80
2018-07-10T00:19:52.766Z,48.90
2018-07-10T00:22:21.102Z,48.90
2018-07-10T00:24:49.410Z,49.00
2018-07-10T00:27:17.744Z,48.70
2018-07-10T00:29:46.052Z,48.90
2018-07-10T00:32:14.355Z,48.80
2018-07-10T00:34:42.657Z,49.10
2018-07-10T00:37:10.975Z,48.90
2018-07-10T00:39:39.262Z,49.00
2018-07-10T00:42:07.572Z,48.90
2018-07-10T00:44:35.872Z,49.00
2018-07-10T00:47:04.223Z,49.30
2018-07-10T00:49:32.537Z,49.20
2018-07-10T00:52:00.846Z,49.20
2018-07-10T00:54:29.179Z,49.50
2018-07-10T00:56:57.516Z,49.50
2018-07-10T00:59:25.839Z,49.70
2018-07-10T01:01:55.509Z,49.50
2018-07-10T01:04:23.915Z,49.60
2018-07-10T01:06:52.391Z,49.90
2018-07-10T01:09:20.729Z,49.90
2018-07-10T01:11:49.062Z,50.00
2018-07-10T01:14:17.689Z,49.90
2018-07-10T01:16:45.990Z,50.00
2018-07-10T01:19:15.754Z,50.10
2018-07-10T01:21:45.074Z,50.30
2018-07-10T01:24:15.486Z,50.30
2018-07-10T01:26:43.850Z,50.70
2018-07-10T01:29:20.096Z,50.40
2018-07-10T01:31:49.886Z,50.30
2018-07-10T01:34:18.230Z,50.30
2018-07-10T01:36:46.539Z,50.30
2018-07-10T01:41:43.345Z,50.30
2018-07-10T01:44:11.679Z,50.50
2018-07-10T01:46:40.005Z,50.50
2018-07-10T01:49:08.368Z,50.30
2018-07-10T01:51:36.839Z,50.40
2018-07-10T01:54:05.150Z,50.40
2018-07-10T01:56:33.488Z,50.50
2018-07-10T01:59:02.115Z,50.80
2018-07-10T02:01:30.432Z,50.60
2018-07-10T02:03:59.815Z,50.80
2018-07-10T02:06:28.547Z,51.40
2018-07-10T02:08:57.258Z,51.90
2018-07-10T02:11:25.859Z,51.70
2018-07-10T02:13:54.209Z,51.70
2018-07-10T02:16:22.583Z,51.30
2018-07-10T02:18:51.055Z,51.10
2018-07-10T02:21:19.509Z,51.20
2018-07-10T02:23:47.942Z,51.20
2018-07-10T02:26:21.860Z,51.50
2018-07-10T02:28:51.046Z,51.10
2018-07-10T02:31:19.369Z,51.00
2018-07-10T02:33:51.091Z,51.40
2018-07-10T02:36:22.204Z,51.40
2018-07-10T02:38:53.851Z,51.30
2018-07-10T02:41:23.034Z,51.20
2018-07-10T02:48:49.486Z,50.90
2018-07-10T02:51:17.791Z,50.50
2018-07-10T02:53:46.449Z,51.10
2018-07-10T02:56:15.702Z,51.00
2018-07-10T02:58:44.032Z,50.80
2018-07-10T03:01:12.380Z,50.10
2018-07-10T03:03:41.866Z,50.90
2018-07-10T03:06:10.291Z,50.80
2018-07-10T03:08:38.647Z,49.60
2018-07-10T03:11:07.094Z,50.30
2018-07-10T03:13:35.841Z,50.60
2018-07-10T03:16:04.175Z,50.60
2018-07-10T03:18:32.994Z,50.00
2018-07-10T03:21:01.355Z,49.00
2018-07-10T03:23:29.676Z,50.10
2018-07-10T03:25:58.150Z,49.80
2018-07-10T03:30:54.552Z,49.90
2018-07-10T03:33:23.029Z,50.60
2018-07-10T03:35:51.375Z,49.80
2018-07-10T03:38:19.737Z,49.70
2018-07-10T03:40:48.096Z,49.20
2018-07-10T03:43:16.410Z,49.30
2018-07-10T03:45:44.762Z,49.00
2018-07-10T03:48:13.106Z,49.20
2018-07-10T03:50:41.443Z,48.30
2018-07-10T03:55:38.466Z,47.50
2018-07-10T03:58:06.799Z,48.30
2018-07-10T04:00:35.966Z,48.70
2018-07-10T04:03:04.467Z,47.60
2018-07-10T04:08:03.686Z,48.30
2018-07-10T04:10:34.639Z,48.00
2018-07-10T04:13:06.531Z,48.60
2018-07-10T04:15:34.944Z,47.70
2018-07-10T04:18:06.958Z,47.60
2018-07-10T04:20:46.945Z,47.90
2018-07-10T04:23:15.418Z,47.70
2018-07-10T04:25:46.237Z,46.40
2018-07-10T04:28:16.562Z,47.50
2018-07-10T04:30:55.693Z,47.90
2018-07-10T04:33:24.008Z,48.00
2018-07-10T04:35:52.341Z,47.90
2018-07-10T04:38:25.956Z,48.00
2018-07-10T04:40:58.066Z,47.90
2018-07-10T04:45:56.781Z,47.70
2018-07-10T04:48:30.465Z,48.00
2018-07-10T04:51:04.265Z,48.00
2018-07-10T04:53:40.148Z,48.30
2018-07-10T04:56:08.552Z,48.30
2018-07-10T04:58:36.860Z,48.10
2018-07-10T05:01:05.195Z,48.90
2018-07-10T05:03:33.578Z,48.20
2018-07-10T05:06:05.897Z,48.00
2018-07-10T05:08:34.203Z,48.20
2018-07-10T05:11:02.687Z,48.10
2018-07-10T05:13:31.014Z,48.20
2018-07-10T05:16:02.627Z,48.40
2018-07-10T05:18:31.060Z,48.40
2018-07-10T05:21:00.581Z,48.50
2018-07-10T05:23:29.226Z,48.30
2018-07-10T05:25:57.678Z,49.30
2018-07-10T05:28:26.847Z,48.10
2018-07-10T05:30:58.195Z,47.70
2018-07-10T05:33:26.627Z,49.30
2018-07-10T05:35:54.967Z,49.60
2018-07-10T05:38:33.629Z,48.70
2018-07-10T05:41:01.988Z,49.30
2018-07-10T05:43:30.729Z,49.60
2018-07-10T05:45:59.175Z,49.10
2018-07-10T05:48:28.630Z,49.60
2018-07-10T05:50:57.058Z,49.80
2018-07-10T05:53:25.411Z,49.10
2018-07-10T05:55:53.888Z,48.70
2018-07-10T05:58:22.209Z,48.30
2018-07-10T06:00:50.529Z,48.10
2018-07-10T06:05:47.182Z,48.00
2018-07-10T06:08:15.563Z,47.90
2018-07-10T06:10:43.921Z,48.00
2018-07-10T06:13:12.210Z,48.00
2018-07-10T06:15:40.613Z,47.90
2018-07-10T06:18:09.011Z,47.80
2018-07-10T06:20:37.410Z,47.80
2018-07-10T06:23:05.691Z,47.80
2018-07-10T06:25:35.818Z,47.80
2018-07-10T06:28:11.100Z,47.70
2018-07-10T06:30:39.930Z,47.80
2018-07-10T06:33:19.822Z,48.60
2018-07-10T06:36:06.129Z,47.90
2018-07-10T06:38:38.088Z,47.90
2018-07-10T06:41:06.561Z,48.10
2018-07-10T06:43:43.613Z,48.30
2018-07-10T06:46:11.922Z,48.20
2018-07-10T06:48:45.499Z,48.40
2018-07-10T06:51:17.107Z,48.30
2018-07-10T06:53:47.184Z,48.40
2018-07-10T06:56:32.626Z,48.50
2018-07-10T06:59:00.934Z,48.60
2018-07-10T07:01:29.319Z,48.60
2018-07-10T07:04:00.215Z,48.70
2018-07-10T07:06:28.711Z,48.80
2018-07-10T07:08:57.020Z,48.90
2018-07-10T07:11:26.106Z,49.00
2018-07-10T07:13:54.554Z,49.00
2018-07-10T07:16:22.918Z,49.00
2018-07-10T07:18:51.757Z,49.10
2018-07-10T07:21:20.516Z,49.30
2018-07-10T07:23:48.970Z,49.40
2018-07-10T07:26:17.407Z,49.30
2018-07-10T07:28:45.759Z,49.40
2018-07-10T07:31:14.426Z,49.50
2018-07-10T07:33:42.973Z,49.50
2018-07-10T07:36:11.914Z,49.50
2018-07-10T07:38:40.264Z,49.50
2018-07-10T07:41:08.793Z,49.50
2018-07-10T07:43:37.315Z,49.50
2018-07-10T07:46:05.672Z,49.50
2018-07-10T07:48:34.346Z,49.50
2018-07-10T07:51:02.771Z,49.50
2018-07-10T07:53:31.619Z,49.60
2018-07-10T07:56:00.205Z,49.50
2018-07-10T07:58:28.692Z,49.40
2018-07-10T08:00:57.236Z,49.40
2018-07-10T08:03:25.580Z,49.50
2018-07-10T08:05:53.907Z,49.50
2018-07-10T08:08:22.185Z,49.50
2018-07-10T08:10:51.071Z,49.50
2018-07-10T08:13:19.510Z,49.70
2018-07-10T08:15:48.448Z,49.80
2018-07-10T08:18:17.053Z,49.90
2018-07-10T08:20:45.443Z,50.00
2018-07-10T08:23:14.003Z,50.00
2018-07-10T08:25:42.582Z,50.20
2018-07-10T08:28:11.078Z,50.20
2018-07-10T08:30:39.343Z,50.20
2018-07-10T08:33:07.772Z,50.20
2018-07-10T08:35:36.098Z,50.40
2018-07-10T08:38:04.450Z,50.40
2018-07-10T08:40:32.806Z,50.40
2018-07-10T08:43:01.453Z,50.40
2018-07-10T08:45:29.905Z,50.60
2018-07-10T08:48:00.153Z,50.70
2018-07-10T08:50:29.785Z,50.70
2018-07-10T08:52:58.644Z,50.80
2018-07-10T08:55:27.041Z,50.80
2018-07-10T08:57:55.764Z,50.80
2018-07-10T09:00:24.152Z,50.80
2018-07-10T09:02:52.456Z,50.80
2018-07-10T09:05:21.244Z,50.80
2018-07-10T09:07:49.531Z,50.70
2018-07-10T09:10:17.971Z,50.80
2018-07-10T09:12:46.294Z,50.80
2018-07-10T09:15:15.196Z,50.80
2018-07-10T09:17:43.609Z,51.10
2018-07-10T09:20:14.079Z,51.10
2018-07-10T09:22:42.621Z,51.10
2018-07-10T09:25:11.250Z,51.20
2018-07-10T09:27:39.691Z,51.10
2018-07-10T09:30:08.008Z,51.30
2018-07-10T09:32:41.974Z,51.20
2018-07-10T09:35:10.288Z,51.40
2018-07-10T09:37:43.954Z,51.70
2018-07-10T09:40:15.587Z,51.80
2018-07-10T09:42:50.056Z,51.80
2018-07-10T09:45:18.710Z,51.90
2018-07-10T09:47:47.581Z,52.00
2018-07-10T09:50:16.154Z,52.20
2018-07-10T09:52:44.535Z,52.20
2018-07-10T09:55:12.838Z,52.30
2018-07-10T09:57:42.703Z,52.40
2018-07-10T10:00:10.974Z,52.40
2018-07-10T10:02:39.944Z,52.80
2018-07-10T10:05:08.405Z,52.70
2018-07-10T10:07:36.702Z,52.80
2018-07-10T10:10:05.334Z,53.00
2018-07-10T10:12:35.015Z,53.10
2018-07-10T10:15:03.357Z,53.10
2018-07-10T10:17:32.314Z,53.10
2018-07-10T10:20:01.038Z,53.10
2018-07-10T10:22:31.300Z,53.10
2018-07-10T10:25:00.682Z,53.80
2018-07-10T10:27:30.058Z,53.20
2018-07-10T10:29:58.919Z,53.60
2018-07-10T10:32:27.210Z,53.40
2018-07-10T10:34:55.555Z,53.80
2018-07-10T10:37:23.822Z,53.70
2018-07-10T10:39:53.116Z,54.20
2018-07-10T10:42:21.452Z,54.10
2018-07-10T10:44:51.986Z,54.70
2018-07-10T10:47:20.855Z,55.10
2018-07-10T10:49:50.521Z,55.30
2018-07-10T10:52:19.363Z,55.10
2018-07-10T10:54:47.672Z,55.30
2018-07-10T10:59:45.206Z,55.70
2018-07-10T11:02:14.095Z,55.70
2018-07-10T11:04:42.346Z,55.70
2018-07-10T11:07:10.729Z,56.40
2018-07-10T11:09:39.233Z,55.50
2018-07-10T11:12:07.545Z,56.40
2018-07-10T11:14:35.923Z,56.00
2018-07-10T11:17:04.282Z,56.80
2018-07-10T11:19:39.166Z,57.20
2018-07-10T11:22:10.808Z,56.50
2018-07-10T11:24:53.115Z,56.60
2018-07-10T11:28:25.020Z,56.50
2018-07-10T11:30:53.347Z,56.70
2018-07-10T11:35:49.708Z,56.90
2018-07-10T11:38:18.090Z,56.60
2018-07-10T11:40:46.515Z,57.10
2018-07-10T11:43:14.887Z,56.90
2018-07-10T11:45:43.260Z,57.00
2018-07-10T11:48:11.529Z,56.60
2018-07-10T11:50:39.846Z,57.00
2018-07-10T11:53:08.164Z,57.00
2018-07-10T11:55:36.775Z,56.90
2018-07-10T11:58:06.896Z,57.20
2018-07-10T12:00:35.615Z,57.20
2018-07-10T12:03:05.236Z,57.30
2018-07-10T12:05:35.175Z,57.00
2018-07-10T12:08:03.462Z,57.10
2018-07-10T12:10:33.710Z,57.10
2018-07-10T12:13:01.986Z,57.30
2018-07-10T12:15:30.519Z,57.00
2018-07-10T12:17:59.558Z,57.30
2018-07-10T12:20:29.675Z,57.40
2018-07-10T12:22:58.664Z,57.40
2018-07-10T12:25:27.393Z,57.60
2018-07-10T12:27:56.301Z,57.30
2018-07-10T12:30:24.604Z,57.50
2018-07-10T12:32:52.968Z,58.00
2018-07-10T12:35:21.278Z,57.80
2018-07-10T12:37:50.069Z,58.00
2018-07-10T12:40:18.438Z,57.80
2018-07-10T12:42:46.758Z,57.60
2018-07-10T12:45:15.067Z,57.70
2018-07-10T12:47:43.427Z,57.90
2018-07-10T12:50:11.763Z,57.90
2018-07-10T12:52:41.011Z,57.70
2018-07-10T12:55:09.305Z,58.20
2018-07-10T12:57:41.669Z,58.70
2018-07-10T13:00:10.330Z,58.20
2018-07-10T13:02:56.459Z,58.00
2018-07-10T13:05:30.303Z,57.90
2018-07-10T13:07:58.643Z,58.20
2018-07-10T13:10:26.974Z,58.20
2018-07-10T13:12:55.359Z,58.20
2018-07-10T13:15:23.670Z,58.50
2018-07-10T13:17:52.239Z,58.30
2018-07-10T13:20:20.807Z,58.30
2018-07-10T13:22:50.484Z,58.40
2018-07-10T13:25:18.786Z,58.20
2018-07-10T13:27:48.433Z,58.00
2018-07-10T13:30:16.754Z,58.10
2018-07-10T13:32:45.051Z,58.30
2018-07-10T13:35:13.367Z,58.20
2018-07-10T13:40:10.530Z,58.50
2018-07-10T13:42:58.544Z,58.60
2018-07-10T13:45:28.041Z,58.40
2018-07-10T13:47:56.362Z,58.30
2018-07-10T13:50:26.726Z,58.60
2018-07-10T13:52:58.847Z,58.30
2018-07-10T13:55:27.910Z,58.60
2018-07-10T13:58:07.752Z,58.70
2018-07-10T14:00:37.357Z,58.70
2018-07-10T14:03:05.680Z,58.50
2018-07-10T14:05:34.067Z,58.40
2018-07-10T14:08:02.355Z,58.70
2018-07-10T14:10:30.713Z,59.00
2018-07-10T14:12:59.583Z,58.80
2018-07-10T14:15:27.917Z,58.60
2018-07-10T14:17:57.869Z,59.00
2018-07-10T14:20:26.455Z,58.90
2018-07-10T14:22:56.619Z,58.40
2018-07-10T14:25:24.925Z,59.00
2018-07-10T14:27:53.227Z,59.10
2018-07-10T14:30:21.587Z,59.10
2018-07-10T14:32:49.868Z,59.00
2018-07-10T14:35:18.244Z,59.20
2018-07-10T14:37:48.217Z,58.80
2018-07-10T14:42:45.171Z,59.30
2018-07-10T14:45:13.471Z,59.30
2018-07-10T14:47:41.759Z,59.50
2018-07-10T14:50:10.039Z,59.50
2018-07-10T14:52:38.574Z,59.10
2018-07-10T14:55:06.895Z,59.50
2018-07-10T14:57:35.281Z,59.50
2018-07-10T15:00:03.660Z,59.80
2018-07-10T15:02:31.959Z,59.40
2018-07-10T15:05:00.258Z,59.30
2018-07-10T15:07:28.599Z,59.80
2018-07-10T15:09:56.965Z,60.00
2018-07-10T15:12:25.254Z,60.00
2018-07-10T15:14:53.717Z,59.30
2018-07-10T15:17:27.499Z,59.80
2018-07-10T15:19:55.841Z,60.00
2018-07-10T15:22:24.130Z,59.30
2018-07-10T15:24:52.428Z,59.90
2018-07-10T15:27:20.791Z,60.20
2018-07-10T15:29:50.557Z,60.20
2018-07-10T15:32:18.973Z,59.50
2018-07-10T15:34:47.328Z,60.90
2018-07-10T15:37:15.647Z,61.10
2018-07-10T15:39:43.960Z,60.00
2018-07-10T15:42:12.263Z,60.80
2018-07-10T15:44:40.591Z,60.60
2018-07-10T15:47:09.524Z,60.70
2018-07-10T15:49:37.900Z,60.00
2018-07-10T15:52:06.497Z,60.10
2018-07-10T15:54:34.864Z,59.90
2018-07-10T15:57:03.172Z,60.00
2018-07-10T15:59:31.466Z,60.00
2018-07-10T16:01:59.806Z,60.10
2018-07-10T16:04:28.181Z,60.10
2018-07-10T16:06:56.652Z,60.20
2018-07-10T16:09:24.942Z,60.10
2018-07-10T16:11:56.305Z,60.10
2018-07-10T16:14:24.954Z,60.30
2018-07-10T16:16:53.256Z,60.20
2018-07-10T16:19:33.658Z,60.20
2018-07-10T16:22:06.419Z,60.00
2018-07-10T16:24:37.755Z,60.00
2018-07-10T16:27:06.578Z,60.20
2018-07-10T16:29:35.056Z,60.10
2018-07-10T16:32:06.403Z,60.30
2018-07-10T16:34:34.909Z,60.40
2018-07-10T16:37:03.543Z,60.30
2018-07-10T16:39:31.865Z,60.30
2018-07-10T16:42:05.636Z,60.30
2018-07-10T16:44:34.497Z,60.30
2018-07-10T16:47:09.880Z,60.80
2018-07-10T16:49:42.491Z,60.80
2018-07-10T16:52:18.610Z,60.90
2018-07-10T16:54:47.515Z,61.50
2018-07-10T16:57:15.844Z,60.40
2018-07-10T16:59:44.152Z,61.00
2018-07-10T17:02:12.617Z,60.50
2018-07-10T17:04:42.598Z,60.90
2018-07-10T17:07:11.080Z,61.40
2018-07-10T17:12:07.910Z,61.00
2018-07-10T17:14:36.207Z,60.80
2018-07-10T17:17:08.748Z,60.70
2018-07-10T17:19:37.071Z,61.00
2018-07-10T17:24:33.733Z,60.90
2018-07-10T17:27:02.020Z,60.50
2018-07-10T17:29:30.429Z,61.50
2018-07-10T17:31:58.736Z,60.90
2018-07-10T17:34:27.009Z,61.20
2018-07-10T17:36:55.401Z,60.40
2018-07-10T17:39:23.828Z,59.70
2018-07-10T17:44:50.819Z,60.80
2018-07-10T17:47:19.505Z,57.70
2018-07-10T17:49:48.040Z,57.20
2018-07-10T17:52:16.506Z,57.00
2018-07-10T17:57:12.869Z,57.10
2018-07-10T17:59:41.234Z,57.10
2018-07-10T18:02:10.290Z,57.20
2018-07-10T18:04:38.621Z,57.20
2018-07-10T18:07:07.196Z,57.30
2018-07-10T18:09:35.527Z,57.40
2018-07-10T18:12:04.003Z,57.20
2018-07-10T18:14:32.385Z,57.10
2018-07-10T18:17:00.874Z,57.30
2018-07-10T18:19:29.215Z,57.50
2018-07-10T18:21:57.559Z,57.30
2018-07-10T18:24:26.011Z,57.10
2018-07-10T18:26:54.388Z,57.30
2018-07-10T18:29:22.729Z,57.30
2018-07-10T18:31:51.139Z,57.40
2018-07-10T18:34:19.567Z,57.50
2018-07-10T18:36:48.037Z,57.60
2018-07-10T18:39:16.535Z,57.40
2018-07-10T18:41:44.855Z,57.40
2018-07-10T18:44:13.234Z,57.60
2018-07-10T18:46:41.629Z,57.30
2018-07-10T18:49:10.172Z,57.40
2018-07-10T18:51:38.528Z,57.60
2018-07-10T18:54:06.988Z,57.70
2018-07-10T18:56:35.263Z,57.60
2018-07-10T18:59:06.070Z,57.70
2018-07-10T19:02:12.285Z,58.00
2018-07-10T19:04:51.203Z,57.70
2018-07-10T19:07:19.801Z,57.90
2018-07-10T19:09:48.228Z,58.40
2018-07-10T19:12:16.601Z,58.30
2018-07-10T19:14:45.338Z,58.90
2018-07-10T19:17:18.521Z,58.30
2018-07-10T19:22:17.120Z,58.80
2018-07-10T19:24:46.027Z,59.40
2018-07-10T19:27:24.134Z,58.70
2018-07-10T19:29:56.038Z,59.00
2018-07-10T19:32:25.738Z,59.40
2018-07-10T19:34:56.425Z,59.50
2018-07-10T19:37:27.739Z,59.50
2018-07-10T19:39:56.096Z,59.50
2018-07-10T19:42:24.806Z,59.30
2018-07-10T19:44:53.264Z,59.40
2018-07-10T19:47:22.749Z,59.50
2018-07-10T19:49:52.247Z,59.40
2018-07-10T19:52:21.410Z,59.40
2018-07-10T19:54:49.804Z,60.00
2018-07-10T19:57:24.647Z,59.70
2018-07-10T19:59:52.942Z,59.90
2018-07-10T20:02:21.366Z,59.70
2018-07-10T20:05:01.312Z,60.60
2018-07-10T20:07:31.596Z,59.90
2018-07-10T20:10:03.787Z,60.50
2018-07-10T20:12:41.792Z,60.30
2018-07-10T20:15:20.794Z,61.00
2018-07-10T20:17:59.550Z,60.40
2018-07-10T20:20:30.165Z,61.70
2018-07-10T20:23:08.598Z,61.00
2018-07-10T20:25:45.721Z,61.50
2018-07-10T20:28:21.372Z,61.50
2018-07-10T20:31:05.128Z,61.20
2018-07-10T20:33:40.896Z,62.30
2018-07-10T20:36:10.174Z,61.50
2018-07-10T20:38:38.548Z,61.50
2018-07-10T20:43:40.627Z,61.70
2018-07-10T20:48:43.567Z,62.20
2018-07-10T20:51:13.387Z,61.50
2018-07-10T20:54:15.202Z,63.10
2018-07-10T20:57:03.831Z,63.70
2018-07-10T20:59:41.187Z,63.10
2018-07-10T21:02:35.306Z,61.90
2018-07-10T21:05:08.486Z,62.80
2018-07-10T21:07:43.392Z,62.10
2018-07-10T21:10:25.061Z,62.40
2018-07-10T21:12:57.286Z,61.70
2018-07-10T21:15:31.447Z,62.10
2018-07-10T21:18:24.419Z,61.70
2018-07-10T21:21:40.002Z,63.40
2018-07-10T21:25:45.598Z,63.40
2018-07-10T21:28:26.812Z,62.50
2018-07-10T21:31:00.175Z,62.50
2018-07-10T21:33:37.956Z,62.20
2018-07-10T21:36:16.727Z,63.20
2018-07-10T21:38:57.014Z,62.80
2018-07-10T21:41:56.718Z,63.10
2018-07-10T21:44:40.008Z,62.30
2018-07-10T21:47:21.938Z,62.70
2018-07-10T21:49:53.222Z,64.30
2018-07-10T21:52:21.532Z,62.40
2018-07-10T21:54:49.986Z,62.40
2018-07-10T21:57:22.203Z,63.50
2018-07-10T21:59:55.026Z,62.90
2018-07-10T22:02:23.974Z,64.10
2018-07-10T22:04:53.794Z,63.30
2018-07-10T22:07:23.411Z,63.50
2018-07-10T22:09:53.666Z,63.40
2018-07-10T22:12:22.399Z,64.00
2018-07-10T22:14:50.695Z,63.70
2018-07-10T22:17:21.787Z,62.80
2018-07-10T22:19:50.938Z,62.30
2018-07-10T22:22:21.415Z,63.10
2018-07-10T22:24:50.811Z,63.50
2018-07-10T22:27:19.470Z,62.80
2018-07-10T22:29:53.202Z,63.40
2018-07-10T22:32:27.033Z,62.40
2018-07-10T22:34:55.337Z,63.60
2018-07-10T22:37:23.648Z,62.90
2018-07-10T22:39:52.011Z,62.60
2018-07-10T22:42:20.326Z,62.80
2018-07-10T22:44:50.581Z,63.20
2018-07-10T22:47:23.362Z,64.70
2018-07-10T22:49:51.698Z,63.80
2018-07-10T22:52:19.995Z,64.70
2018-07-10T22:54:48.361Z,63.70
2018-07-10T22:57:16.731Z,65.60
2018-07-10T22:59:45.932Z,64.00
2018-07-10T23:02:14.282Z,63.60
2018-07-10T23:04:42.584Z,63.70
2018-07-10T23:07:10.940Z,63.90
2018-07-10T23:09:39.260Z,64.60
2018-07-10T23:12:07.753Z,64.00
2018-07-10T23:14:36.119Z,63.70
2018-07-10T23:17:04.488Z,64.60
2018-07-10T23:19:32.889Z,64.10
2018-07-10T23:22:01.193Z,64.10
2018-07-10T23:24:30.700Z,63.30
2018-07-10T23:26:59.021Z,63.10
2018-07-10T23:29:33.704Z,64.60
2018-07-10T23:32:02.239Z,63.00
2018-07-10T23:34:31.087Z,63.10
2018-07-10T23:37:00.331Z,64.10
2018-07-10T23:39:40.953Z,63.30
2018-07-10T23:42:14.819Z,64.60
2018-07-10T23:44:46.445Z,63.20
2018-07-10T23:47:32.964Z,63.30
2018-07-10T23:50:13.775Z,63.30
2018-07-10T23:52:51.834Z,63.20
2018-07-10T23:55:20.140Z,63.20
2018-07-10T23:57:48.882Z,63.20
